Time;durP1;ratioP1;P1;durP2;ratioP2;P2;SDS_P1;SDS_P2;PMS_P1;PMS_P2;Temp;Humidity;BMP_temperature;BMP_pressure;BME280_temperature;BME280_humidity;BME280_pressure;Samples;Min_cycle;Max_cycle;Signal;HPM_P1;HPM_P2
2023/03/25 00:00:15;;;;;;;6.65;5.63;;;;;;;;;;4997881;28;20382;-69
2023/03/25 00:02:41;;;;;;;6.95;6.28;;;;;;;;;;4998292;28;20474;-69
2023/03/25 00:05:06;;;;;;;7.95;6.63;;;;;;;;;;4998057;28;20027;-68
2023/03/25 00:07:38;;;;;;;12.75;7.63;;;;;;;;;;4964525;28;20034;-69
2023/03/25 00:10:04;;;;;;;11.07;7.38;;;;;;;;;;4964576;28;20034;-69
2023/03/25 00:12:30;;;;;;;10.98;7.82;;;;;;;;;;4980576;28;20038;-69
2023/03/25 00:14:57;;;;;;;9.45;7.65;;;;;;;;;;4997621;28;20036;-69
2023/03/25 00:17:25;;;;;;;11.70;9.15;;;;;;;;;;4997780;28;20360;-69
2023/03/25 00:19:50;;;;;;;8.32;7.47;;;;;;;;;;4997758;28;20471;-70
2023/03/25 00:22:19;;;;;;;9.93;8.07;;;;;;;;;;4980312;28;20098;-69
2023/03/25 00:24:44;;;;;;;7.50;6.72;;;;;;;;;;4997718;28;20105;-69
2023/03/25 00:27:10;;;;;;;9.13;6.55;;;;;;;;;;4980013;28;20026;-73
2023/03/25 00:29:35;;;;;;;8.68;6.43;;;;;;;;;;4989122;23;20157;-69
2023/03/25 00:32:00;;;;;;;7.10;6.32;;;;;;;;;;4976571;28;20143;-69
2023/03/25 00:34:26;;;;;;;9.55;6.57;;;;;;;;;;4976649;28;20035;-69
2023/03/25 00:36:51;;;;;;;7.25;6.10;;;;;;;;;;4960447;28;20035;-69
2023/03/25 00:39:17;;;;;;;7.78;6.00;;;;;;;;;;4977970;28;20034;-69
2023/03/25 00:41:42;;;;;;;7.07;6.32;;;;;;;;;;4976454;28;20094;-68
2023/03/25 00:44:11;;;;;;;6.93;5.95;;;;;;;;;;4977597;28;20542;-67
2023/03/25 00:46:36;;;;;;;8.63;6.50;;;;;;;;;;4976709;28;20035;-67
2023/03/25 00:49:02;;;;;;;7.25;6.03;;;;;;;;;;4978139;28;20042;-67
2023/03/25 00:51:30;;;;;;;7.78;5.80;;;;;;;;;;4976181;28;20041;-67
2023/03/25 00:53:59;;;;;;;6.60;5.97;;;;;;;;;;4977475;28;20055;-67
2023/03/25 00:56:24;;;;;;;7.35;6.57;;;;;;;;;;4976173;28;20093;-68
2023/03/25 00:58:50;;;;;;;7.95;6.85;;;;;;;;;;4977618;28;20459;-68
2023/03/25 01:01:17;;;;;;;8.77;7.38;;;;;;;;;;4959897;28;20038;-68
2023/03/25 01:03:43;;;;;;;8.80;6.32;;;;;;;;;;4977483;28;20029;-68
2023/03/25 01:06:10;;;;;;;6.53;5.75;;;;;;;;;;4975668;28;20035;-68
2023/03/25 01:08:37;;;;;;;7.53;6.63;;;;;;;;;;4977183;28;20035;-68
2023/03/25 01:11:03;;;;;;;7.72;6.30;;;;;;;;;;4977437;28;20037;-68
2023/03/25 01:13:28;;;;;;;8.27;6.35;;;;;;;;;;4977227;28;20043;-69
2023/03/25 01:15:54;;;;;;;7.32;5.93;;;;;;;;;;4975895;28;20058;-69
2023/03/25 01:18:19;;;;;;;6.40;5.80;;;;;;;;;;4977388;28;20031;-69
2023/03/25 01:20:45;;;;;;;9.30;6.60;;;;;;;;;;4976969;28;20490;-69
2023/03/25 01:23:10;;;;;;;7.40;6.22;;;;;;;;;;4959583;28;20040;-69
2023/03/25 01:25:35;;;;;;;8.15;7.18;;;;;;;;;;4977337;28;20031;-69
2023/03/25 01:28:01;;;;;;;9.13;7.85;;;;;;;;;;4977422;28;20031;-69
2023/03/25 01:30:26;;;;;;;9.30;7.22;;;;;;;;;;4993833;28;20048;-69
2023/03/25 01:32:52;;;;;;;7.95;6.70;;;;;;;;;;4979150;28;20062;-69
2023/03/25 01:35:17;;;;;;;9.27;7.00;;;;;;;;;;4978809;28;20034;-69
2023/03/25 01:37:43;;;;;;;9.35;6.50;;;;;;;;;;4978684;28;20496;-69
2023/03/25 01:40:09;;;;;;;7.38;6.28;;;;;;;;;;4978606;28;20042;-69
2023/03/25 01:42:35;;;;;;;7.28;6.25;;;;;;;;;;4995697;28;20129;-69
2023/03/25 01:45:12;;;;;;;8.00;6.65;;;;;;;;;;4996618;28;20054;-68
2023/03/25 01:47:37;;;;;;;7.88;6.65;;;;;;;;;;4998265;28;20480;-68
2023/03/25 01:50:03;;;;;;;7.88;6.32;;;;;;;;;;4997459;28;20142;-67
2023/03/25 01:52:29;;;;;;;7.22;6.10;;;;;;;;;;4978964;28;20049;-67
2023/03/25 01:54:55;;;;;;;6.28;5.68;;;;;;;;;;4996254;28;20501;-65
2023/03/25 01:57:22;;;;;;;5.93;5.32;;;;;;;;;;4978288;28;20030;-65
2023/03/25 01:59:48;;;;;;;5.85;5.18;;;;;;;;;;4962153;28;20066;-71
2023/03/25 02:02:16;;;;;;;5.65;5.15;;;;;;;;;;4978065;28;20022;-71
2023/03/25 02:04:44;;;;;;;6.57;5.47;;;;;;;;;;4978114;28;20030;-71
2023/03/25 02:07:11;;;;;;;6.05;4.93;;;;;;;;;;4995779;28;20077;-72
2023/03/25 02:09:36;;;;;;;5.70;5.15;;;;;;;;;;4995461;28;20439;-72
2023/03/25 02:12:05;;;;;;;5.47;4.97;;;;;;;;;;4995675;28;20030;-71
2023/03/25 02:14:32;;;;;;;5.85;5.20;;;;;;;;;;4978321;28;20049;-71
2023/03/25 02:17:08;;;;;;;5.80;4.78;;;;;;;;;;4977295;28;20061;-71
2023/03/25 02:19:53;;;;;;;5.20;4.70;;;;;;;;;;4978219;28;20045;-72
2023/03/25 02:22:38;;;;;;;5.10;4.70;;;;;;;;;;4929576;28;20038;-72
2023/03/25 02:25:17;;;;;;;5.53;4.70;;;;;;;;;;4961612;28;20076;-72
2023/03/25 02:27:45;;;;;;;;;;;;;;;;;;4978136;28;20030;-72
2023/03/25 02:30:34;;;;;;;5.53;4.43;;;;;;;;;;4974339;28;19918;-72
2023/03/25 02:33:22;;;;;;;5.80;5.22;;;;;;;;;;4948434;28;20047;-72
2023/03/25 02:36:11;;;;;;;5.00;4.57;;;;;;;;;;4975622;28;20027;-74
2023/03/25 02:38:51;;;;;;;5.07;4.68;;;;;;;;;;4974254;28;20042;-73
2023/03/25 02:41:29;;;;;;;5.13;4.63;;;;;;;;;;4975663;28;20118;-73
2023/03/25 02:43:55;;;;;;;5.93;4.90;;;;;;;;;;4975442;28;20027;-73
2023/03/25 02:46:21;;;;;;;5.00;4.60;;;;;;;;;;4974179;28;20034;-66
2023/03/25 02:48:51;;;;;;;4.93;4.43;;;;;;;;;;4974152;28;20073;-66
2023/03/25 02:51:20;;;;;;;4.82;4.45;;;;;;;;;;4974787;28;20034;-65
2023/03/25 02:53:46;;;;;;;5.20;4.72;;;;;;;;;;4975309;28;20027;-65
2023/03/25 02:56:14;;;;;;;5.28;4.80;;;;;;;;;;4974856;28;20161;-73
2023/03/25 02:58:40;;;;;;;5.40;4.95;;;;;;;;;;4975468;28;20474;-73
2023/03/25 03:01:08;;;;;;;5.20;4.70;;;;;;;;;;4975481;28;20034;-73
2023/03/25 03:03:34;;;;;;;5.40;4.15;;;;;;;;;;4973889;28;20064;-75
2023/03/25 03:06:02;;;;;;;6.05;4.10;;;;;;;;;;4980331;23;20424;-72
2023/03/25 03:08:45;;;;;;;4.18;3.78;;;;;;;;;;4976790;28;20118;-72
2023/03/25 03:11:13;;;;;;;4.25;3.85;;;;;;;;;;4995004;28;20026;-74
2023/03/25 03:13:58;;;;;;;4.85;3.95;;;;;;;;;;4994931;28;20517;-74
2023/03/25 03:16:23;;;;;;;5.00;3.85;;;;;;;;;;4994718;28;20389;-74
2023/03/25 03:19:07;;;;;;;4.15;3.75;;;;;;;;;;4994683;28;20117;-74
2023/03/25 03:21:52;;;;;;;3.75;3.42;;;;;;;;;;4976892;28;20046;-67
2023/03/25 03:24:28;;;;;;;4.32;3.58;;;;;;;;;;4994849;28;20038;-70
2023/03/25 03:27:06;;;;;;;3.55;2.90;;;;;;;;;;4994224;28;20509;-68
2023/03/25 03:29:35;;;;;;;3.75;3.45;;;;;;;;;;4994276;28;20474;-69
2023/03/25 03:32:05;;;;;;;3.55;3.25;;;;;;;;;;4994460;28;20031;-68
2023/03/25 03:34:35;;;;;;;3.92;3.22;;;;;;;;;;4994486;28;20034;-68
2023/03/25 03:37:02;;;;;;;3.30;3.00;;;;;;;;;;4960761;28;20478;-69
2023/03/25 03:39:30;;;;;;;3.83;3.42;;;;;;;;;;4994734;28;20039;-69
2023/03/25 03:42:17;;;;;;;4.63;3.40;;;;;;;;;;4994136;28;20034;-69
2023/03/25 03:44:45;;;;;;;3.50;3.25;;;;;;;;;;4976933;28;20057;-69
2023/03/25 03:47:17;;;;;;;3.25;2.95;;;;;;;;;;4960833;28;20433;-68
2023/03/25 03:49:51;;;;;;;3.53;3.22;;;;;;;;;;4988081;23;20089;-77
2023/03/25 03:52:20;;;;;;;3.50;3.20;;;;;;;;;;4976536;28;20117;-77
2023/03/25 03:55:04;;;;;;;2.95;2.75;;;;;;;;;;4977305;28;20488;-77
2023/03/25 03:57:36;;;;;;;2.15;1.95;;;;;;;;;;4994530;28;20069;-77
2023/03/25 04:00:14;;;;;;;2.70;2.50;;;;;;;;;;4977499;28;20030;-77
2023/03/25 04:02:43;;;;;;;2.58;2.38;;;;;;;;;;4994375;28;20046;-77
2023/03/25 04:05:11;;;;;;;3.58;2.60;;;;;;;;;;4993972;28;20462;-77
2023/03/25 04:07:42;;;;;;;2.92;2.33;;;;;;;;;;4976506;28;20445;-77
2023/03/25 04:10:13;;;;;;;2.55;2.22;;;;;;;;;;4994085;28;20027;-75
2023/03/25 04:12:42;;;;;;;2.78;2.38;;;;;;;;;;4994131;28;20461;-75
2023/03/25 04:15:07;;;;;;;2.58;2.38;;;;;;;;;;4993875;28;20386;-75
2023/03/25 04:17:33;;;;;;;2.67;2.45;;;;;;;;;;4993844;28;20146;-75
2023/03/25 04:19:58;;;;;;;2.45;2.25;;;;;;;;;;4994045;28;20072;-75
2023/03/25 04:22:24;;;;;;;2.70;2.50;;;;;;;;;;4976703;28;20030;-75
2023/03/25 04:24:50;;;;;;;2.42;2.30;;;;;;;;;;4994073;28;20037;-75
2023/03/25 04:27:21;;;;;;;2.70;2.30;;;;;;;;;;4976287;28;20054;-75
2023/03/25 04:29:47;;;;;;;2.85;2.60;;;;;;;;;;4994033;28;20524;-75
2023/03/25 04:32:12;;;;;;;2.78;2.53;;;;;;;;;;4976372;28;20034;-76
2023/03/25 04:34:38;;;;;;;3.35;2.60;;;;;;;;;;4994225;28;20034;-76
2023/03/25 04:37:03;;;;;;;2.85;2.55;;;;;;;;;;4993671;28;20053;-76
2023/03/25 04:39:31;;;;;;;2.80;2.40;;;;;;;;;;4994286;28;20533;-76
2023/03/25 04:41:56;;;;;;;3.28;2.47;;;;;;;;;;4997382;28;20049;-75
2023/03/25 04:44:24;;;;;;;2.40;2.20;;;;;;;;;;4963545;28;20034;-76
2023/03/25 04:46:50;;;;;;;2.75;2.55;;;;;;;;;;4997053;28;20039;-76
2023/03/25 04:49:17;;;;;;;2.58;2.38;;;;;;;;;;4997579;28;20039;-76
2023/03/25 04:51:48;;;;;;;2.65;2.40;;;;;;;;;;4976141;28;20387;-76
2023/03/25 04:54:14;;;;;;;2.95;2.40;;;;;;;;;;4976237;28;20031;-68
2023/03/25 04:56:39;;;;;;;2.63;2.42;;;;;;;;;;4977750;28;20130;-68
2023/03/25 04:59:05;;;;;;;2.88;2.58;;;;;;;;;;4960079;28;20035;-68
2023/03/25 05:01:30;;;;;;;2.88;2.53;;;;;;;;;;4975932;28;20032;-71
2023/03/25 05:04:04;;;;;;;2.95;2.58;;;;;;;;;;4977570;28;20383;-70
2023/03/25 05:06:32;;;;;;;2.38;2.17;;;;;;;;;;4977568;28;20478;-70
2023/03/25 05:08:58;;;;;;;3.55;2.85;;;;;;;;;;4977271;28;20095;-70
2023/03/25 05:11:24;;;;;;;2.65;2.45;;;;;;;;;;4977335;28;20033;-69
2023/03/25 05:13:49;;;;;;;2.75;2.55;;;;;;;;;;4959826;28;20378;-66
2023/03/25 05:16:15;;;;;;;5.45;3.20;;;;;;;;;;4977085;28;20015;-67
2023/03/25 05:18:40;;;;;;;3.40;3.10;;;;;;;;;;4960350;28;20026;-66
2023/03/25 05:21:06;;;;;;;3.15;2.88;;;;;;;;;;4977295;28;20340;-67
2023/03/25 05:23:31;;;;;;;3.25;3.00;;;;;;;;;;4976532;28;20058;-66
2023/03/25 05:25:58;;;;;;;3.05;2.75;;;;;;;;;;4977486;28;20029;-65
2023/03/25 05:28:24;;;;;;;4.03;2.78;;;;;;;;;;4977149;28;20034;-65
2023/03/25 05:30:50;;;;;;;4.07;3.03;;;;;;;;;;4975597;28;20390;-65
2023/03/25 05:33:16;;;;;;;11.50;5.88;;;;;;;;;;4975663;28;20035;-65
2023/03/25 05:35:42;;;;;;;12.38;6.80;;;;;;;;;;4977293;28;20423;-74
2023/03/25 05:38:08;;;;;;;11.35;5.63;;;;;;;;;;4975467;28;20074;-74
2023/03/25 05:40:34;;;;;;;7.07;4.18;;;;;;;;;;4976677;28;20113;-74
2023/03/25 05:43:01;;;;;;;6.93;4.65;;;;;;;;;;4975932;28;20038;-75
2023/03/25 05:45:27;;;;;;;7.78;5.05;;;;;;;;;;4976547;28;20027;-76
2023/03/25 05:47:53;;;;;;;7.22;5.15;;;;;;;;;;4976538;28;20479;-75
2023/03/25 05:50:19;;;;;;;8.05;5.25;;;;;;;;;;4983197;28;20039;-75
2023/03/25 05:52:48;;;;;;;8.13;5.10;;;;;;;;;;4995296;28;20045;-74
2023/03/25 05:55:15;;;;;;;5.32;4.40;;;;;;;;;;4978692;28;20030;-73
2023/03/25 05:57:41;;;;;;;4.85;3.40;;;;;;;;;;4995783;28;20078;-73
2023/03/25 06:00:07;;;;;;;3.83;3.03;;;;;;;;;;4995956;28;20034;-72
2023/03/25 06:02:37;;;;;;;4.45;3.28;;;;;;;;;;4978756;28;20035;-72
2023/03/25 06:05:04;;;;;;;4.28;3.15;;;;;;;;;;4962217;28;20437;-78
2023/03/25 06:07:29;;;;;;;3.72;3.28;;;;;;;;;;4996230;28;20034;-73
2023/03/25 06:09:55;;;;;;;3.88;2.92;;;;;;;;;;4978207;28;20089;-72
2023/03/25 06:12:21;;;;;;;3.15;2.85;;;;;;;;;;4995974;28;20061;-75
2023/03/25 06:14:46;;;;;;;4.80;3.00;;;;;;;;;;4977421;28;20034;-76
2023/03/25 06:17:15;;;;;;;3.38;2.75;;;;;;;;;;4976212;28;20482;-75
2023/03/25 06:19:40;;;;;;;3.15;2.85;;;;;;;;;;4976787;28;20166;-75
2023/03/25 06:22:08;;;;;;;4.75;4.10;;;;;;;;;;4994340;28;20493;-79
2023/03/25 06:24:37;;;;;;;4.35;3.50;;;;;;;;;;4994472;28;20022;-77
2023/03/25 06:27:05;;;;;;;3.88;3.58;;;;;;;;;;4991568;28;20122;-76
2023/03/25 06:29:36;;;;;;;6.30;4.00;;;;;;;;;;4994630;28;20027;-72
2023/03/25 06:32:02;;;;;;;4.75;3.97;;;;;;;;;;4995506;28;20038;-74
2023/03/25 06:34:27;;;;;;;7.88;3.85;;;;;;;;;;4996437;28;20034;-74
2023/03/25 06:36:53;;;;;;;6.70;3.90;;;;;;;;;;4979656;28;20030;-74
2023/03/25 06:39:19;;;;;;;4.53;3.92;;;;;;;;;;4994638;28;20022;-74
2023/03/25 06:41:46;;;;;;;9.82;4.32;;;;;;;;;;4977442;28;20053;-74
2023/03/25 06:44:21;;;;;;;5.85;4.00;;;;;;;;;;4974246;28;20023;-65
2023/03/25 06:47:05;;;;;;;7.70;4.43;;;;;;;;;;4986320;28;20098;-74
2023/03/25 06:49:40;;;;;;;6.68;4.40;;;;;;;;;;4993058;28;20077;-74
2023/03/25 06:52:05;;;;;;;6.35;5.00;;;;;;;;;;4975640;28;20042;-75
2023/03/25 06:54:31;;;;;;;8.27;5.18;;;;;;;;;;4993203;28;20034;-75
2023/03/25 06:56:56;;;;;;;7.95;4.88;;;;;;;;;;4976217;28;20041;-70
2023/03/25 06:59:22;;;;;;;6.75;4.95;;;;;;;;;;4995094;28;20461;-71
2023/03/25 07:01:47;;;;;;;7.25;4.88;;;;;;;;;;4976885;28;20038;-61
2023/03/25 07:04:13;;;;;;;6.70;4.60;;;;;;;;;;4993356;28;20045;-69
2023/03/25 07:06:38;;;;;;;4.82;4.28;;;;;;;;;;4994742;28;20023;-64
2023/03/25 07:09:04;;;;;;;9.27;4.75;;;;;;;;;;4977381;28;20429;-64
2023/03/25 07:11:29;;;;;;;7.65;5.10;;;;;;;;;;4977559;28;20030;-62
2023/03/25 07:13:55;;;;;;;8.15;5.00;;;;;;;;;;4994765;28;20077;-62
2023/03/25 07:16:21;;;;;;;7.18;4.82;;;;;;;;;;5005672;23;20065;-63
2023/03/25 07:18:46;;;;;;;6.68;4.03;;;;;;;;;;4975879;28;20037;-73
2023/03/25 07:21:12;;;;;;;5.25;3.65;;;;;;;;;;4992888;28;20022;-66
2023/03/25 07:23:37;;;;;;;4.68;3.80;;;;;;;;;;4992607;28;20042;-66
2023/03/25 07:26:03;;;;;;;4.05;3.40;;;;;;;;;;4992758;28;20018;-66
2023/03/25 07:28:28;;;;;;;5.65;3.08;;;;;;;;;;4993374;28;20045;-66
2023/03/25 07:30:55;;;;;;;4.80;2.85;;;;;;;;;;4993245;28;20109;-65
2023/03/25 07:33:20;;;;;;;4.43;2.95;;;;;;;;;;4959940;28;20044;-64
2023/03/25 07:35:46;;;;;;;3.22;2.60;;;;;;;;;;4974871;28;20481;-61
2023/03/25 07:38:11;;;;;;;5.63;2.95;;;;;;;;;;4993308;28;20045;-61
2023/03/25 07:40:37;;;;;;;4.38;2.88;;;;;;;;;;4975999;28;20085;-61
2023/03/25 07:43:03;;;;;;;1.73;1.50;;;;;;;;;;4993039;28;20540;-65
2023/03/25 07:45:42;;;;;;;2.22;2.03;;;;;;;;;;4975969;28;20022;-62
2023/03/25 07:48:13;;;;;;;3.17;2.63;;;;;;;;;;4992948;28;20034;-61
2023/03/25 07:50:38;;;;;;;;;;;;;;;;;;4976664;28;20425;-61
2023/03/25 07:53:06;;;;;;;2.73;2.07;;;;;;;;;;4960584;28;19909;-61
2023/03/25 07:55:32;;;;;;;2.85;2.63;;;;;;;;;;4993939;28;20331;-61
2023/03/25 07:58:00;;;;;;;3.03;2.80;;;;;;;;;;4976792;28;20470;-64
2023/03/25 08:00:28;;;;;;;4.75;2.38;;;;;;;;;;4993898;28;20474;-65
2023/03/25 08:02:54;;;;;;;2.05;1.92;;;;;;;;;;4994329;28;20121;-65
2023/03/25 08:05:20;;;;;;;4.82;2.83;;;;;;;;;;4976779;28;20069;-65
2023/03/25 08:07:49;;;;;;;5.90;3.00;;;;;;;;;;4994120;28;20026;-65
2023/03/25 08:10:17;;;;;;;4.30;2.95;;;;;;;;;;4993653;28;20354;-65
2023/03/25 08:12:43;;;;;;;7.40;3.13;;;;;;;;;;4960001;28;20125;-65
2023/03/25 08:15:10;;;;;;;7.20;4.38;;;;;;;;;;4994892;28;20113;-62
2023/03/25 08:17:36;;;;;;;6.97;3.83;;;;;;;;;;4997350;28;20505;-72
2023/03/25 08:20:04;;;;;;;6.95;4.35;;;;;;;;;;4980464;28;20038;-73
2023/03/25 08:22:42;;;;;;;5.72;3.63;;;;;;;;;;4997297;28;20114;-72
2023/03/25 08:25:08;;;;;;;3.28;2.97;;;;;;;;;;4997634;28;20378;-73
2023/03/25 08:27:33;;;;;;;4.38;3.15;;;;;;;;;;4997216;28;20031;-70
2023/03/25 08:29:59;;;;;;;5.40;3.58;;;;;;;;;;4979621;28;20034;-70
2023/03/25 08:32:26;;;;;;;4.82;3.67;;;;;;;;;;4963301;28;20038;-70
2023/03/25 08:34:51;;;;;;;6.57;4.03;;;;;;;;;;4979449;28;20466;-70
2023/03/25 08:37:16;;;;;;;8.05;4.32;;;;;;;;;;4978961;28;20031;-70
2023/03/25 08:39:43;;;;;;;3.45;3.00;;;;;;;;;;4979486;28;20042;-70
2023/03/25 08:42:12;;;;;;;5.78;2.85;;;;;;;;;;4979808;28;20154;-71
2023/03/25 08:44:40;;;;;;;7.40;3.60;;;;;;;;;;4979578;28;20030;-71
2023/03/25 08:47:06;;;;;;;6.65;3.28;;;;;;;;;;4996883;28;20026;-72
2023/03/25 08:49:31;;;;;;;5.35;3.03;;;;;;;;;;4979235;28;20039;-71
2023/03/25 08:51:57;;;;;;;6.78;3.30;;;;;;;;;;4996406;28;20051;-71
2023/03/25 08:54:23;;;;;;;4.53;2.97;;;;;;;;;;4996768;28;20030;-71
2023/03/25 08:56:49;;;;;;;6.63;3.40;;;;;;;;;;4996723;28;20380;-71
2023/03/25 08:59:14;;;;;;;3.60;3.30;;;;;;;;;;4979103;28;20030;-71
2023/03/25 09:01:42;;;;;;;3.47;2.83;;;;;;;;;;4996117;28;20045;-71
2023/03/25 09:04:07;;;;;;;4.57;3.42;;;;;;;;;;4977989;28;20031;-71
2023/03/25 09:06:33;;;;;;;3.67;2.83;;;;;;;;;;4978781;28;20031;-71
2023/03/25 09:08:59;;;;;;;2.78;2.13;;;;;;;;;;4977060;28;20459;-71
2023/03/25 09:11:25;;;;;;;3.20;1.98;;;;;;;;;;4986034;28;20031;-70
2023/03/25 09:13:52;;;;;;;3.40;2.30;;;;;;;;;;4962943;28;20021;-70
2023/03/25 09:16:17;;;;;;;3.15;1.92;;;;;;;;;;4996094;28;20040;-70
2023/03/25 09:18:42;;;;;;;4.07;2.53;;;;;;;;;;4978923;28;20030;-70
2023/03/25 09:21:08;;;;;;;3.05;2.38;;;;;;;;;;4996243;28;20018;-70
2023/03/25 09:23:33;;;;;;;5.47;2.53;;;;;;;;;;4996047;28;20061;-70
2023/03/25 09:26:00;;;;;;;3.53;2.13;;;;;;;;;;4978395;28;20030;-70
2023/03/25 09:28:26;;;;;;;4.95;2.38;;;;;;;;;;4978467;28;20026;-70
2023/03/25 09:30:52;;;;;;;5.63;3.97;;;;;;;;;;4995424;28;20030;-71
2023/03/25 09:33:18;;;;;;;2.80;2.30;;;;;;;;;;4995610;28;20065;-71
2023/03/25 09:35:43;;;;;;;5.88;3.40;;;;;;;;;;4962262;28;20061;-70
2023/03/25 09:38:09;;;;;;;4.93;3.00;;;;;;;;;;4996144;28;20484;-69
2023/03/25 09:40:34;;;;;;;4.28;3.05;;;;;;;;;;4996651;28;20552;-69
2023/03/25 09:43:17;;;;;;;4.47;2.28;;;;;;;;;;4996473;28;20117;-70
2023/03/25 09:45:47;;;;;;;12.75;8.63;;;;;;;;;;4995705;28;20065;-69
2023/03/25 09:48:31;;;;;;;4.82;3.60;;;;;;;;;;4978691;28;20030;-71
2023/03/25 09:51:26;;;;;;;3.22;2.03;;;;;;;;;;4978591;28;20057;-77
2023/03/25 09:54:03;;;;;;;2.95;1.90;;;;;;;;;;4974526;28;20132;-72
2023/03/25 09:56:32;;;;;;;2.47;2.28;;;;;;;;;;4978211;28;20031;-71
2023/03/25 09:59:00;;;;;;;3.10;1.50;;;;;;;;;;4978181;28;20034;-71
2023/03/25 10:01:37;;;;;;;3.08;1.70;;;;;;;;;;4995446;28;20390;-71
2023/03/25 10:04:22;;;;;;;5.97;4.35;;;;;;;;;;4995294;28;20031;-71
2023/03/25 10:06:59;;;;;;;9.00;3.88;;;;;;;;;;4994921;28;20084;-70
2023/03/25 10:09:47;;;;;;;3.35;2.53;;;;;;;;;;4995409;28;20405;-73
2023/03/25 10:12:31;;;;;;;3.35;2.50;;;;;;;;;;4948994;28;20054;-67
2023/03/25 10:15:16;;;;;;;4.18;1.85;;;;;;;;;;4977871;28;20030;-68
2023/03/25 10:17:55;;;;;;;5.40;3.88;;;;;;;;;;4995194;28;20166;-68
2023/03/25 10:20:35;;;;;;;3.70;2.45;;;;;;;;;;4995453;28;20041;-68
2023/03/25 10:23:16;;;;;;;1.58;1.48;;;;;;;;;;4995249;28;20046;-68
2023/03/25 10:25:44;;;;;;;2.92;1.42;;;;;;;;;;4994983;28;20490;-61
2023/03/25 10:28:26;;;;;;;4.72;1.83;;;;;;;;;;4995279;28;20030;-69
2023/03/25 10:30:53;;;;;;;5.82;4.22;;;;;;;;;;4995260;28;20101;-68
2023/03/25 10:33:27;;;;;;;2.90;1.77;;;;;;;;;;4977477;28;20077;-69
2023/03/25 10:35:53;;;;;;;5.97;3.38;;;;;;;;;;4977535;28;20061;-68
2023/03/25 10:38:19;;;;;;;2.42;1.58;;;;;;;;;;4993695;28;20518;-69
2023/03/25 10:40:50;;;;;;;2.10;1.90;;;;;;;;;;4977383;28;20368;-69
2023/03/25 10:43:27;;;;;;;1.88;1.63;;;;;;;;;;4994351;28;20062;-69
2023/03/25 10:45:56;;;;;;;2.10;1.58;;;;;;;;;;4994934;28;20045;-69
2023/03/25 10:48:26;;;;;;;2.05;1.30;;;;;;;;;;4995485;28;20018;-69
2023/03/25 10:51:15;;;;;;;1.75;1.13;;;;;;;;;;4978254;28;20034;-69
2023/03/25 10:53:41;;;;;;;2.35;1.35;;;;;;;;;;4982313;28;20088;-69
2023/03/25 10:56:11;;;;;;;2.25;1.27;;;;;;;;;;4995031;28;20442;-69
2023/03/25 10:58:38;;;;;;;1.58;1.45;;;;;;;;;;4995040;28;20058;-69
2023/03/25 11:01:13;;;;;;;1.50;1.40;;;;;;;;;;4977863;28;20043;-69
2023/03/25 11:03:40;;;;;;;3.20;1.70;;;;;;;;;;4977226;28;20027;-69
2023/03/25 11:06:05;;;;;;;1.83;1.13;;;;;;;;;;4995103;28;20481;-68
2023/03/25 11:08:31;;;;;;;1.15;1.05;;;;;;;;;;4994181;28;20034;-68
2023/03/25 11:10:57;;;;;;;1.20;1.10;;;;;;;;;;4994447;28;20065;-68
2023/03/25 11:13:26;;;;;;;4.05;1.60;;;;;;;;;;4977152;28;20468;-67
2023/03/25 11:15:53;;;;;;;1.30;1.20;;;;;;;;;;4977453;28;20049;-67
2023/03/25 11:18:37;;;;;;;1.40;1.30;;;;;;;;;;4994439;28;20033;-68
2023/03/25 11:21:07;;;;;;;2.13;1.30;;;;;;;;;;4994674;28;20089;-68
2023/03/25 11:23:43;;;;;;;2.58;1.73;;;;;;;;;;4977266;28;20461;-68
2023/03/25 11:26:16;;;;;;;2.63;1.85;;;;;;;;;;4994585;28;20026;-68
2023/03/25 11:28:47;;;;;;;2.70;1.38;;;;;;;;;;4994150;28;20537;-68
2023/03/25 11:31:14;;;;;;;3.38;1.45;;;;;;;;;;4993311;28;20493;-68
2023/03/25 11:33:40;;;;;;;1.88;1.77;;;;;;;;;;4975797;28;20041;-68
2023/03/25 11:36:20;;;;;;;2.15;1.65;;;;;;;;;;4992954;28;20034;-68
2023/03/25 11:38:49;;;;;;;2.25;1.63;;;;;;;;;;4993711;28;20046;-68
2023/03/25 11:41:15;;;;;;;2.08;1.35;;;;;;;;;;4976454;28;20393;-68
2023/03/25 11:43:41;;;;;;;1.98;1.20;;;;;;;;;;4995723;28;20043;-68
2023/03/25 11:46:08;;;;;;;1.40;1.20;;;;;;;;;;4995031;28;20025;-68
2023/03/25 11:48:37;;;;;;;1.88;0.98;;;;;;;;;;4994349;28;20021;-68
2023/03/25 11:51:04;;;;;;;1.30;1.10;;;;;;;;;;4979224;28;20026;-68
2023/03/25 11:53:31;;;;;;;1.42;0.98;;;;;;;;;;4979756;28;20055;-69
2023/03/25 11:55:59;;;;;;;0.70;0.68;;;;;;;;;;4997246;28;20474;-68
2023/03/25 11:58:27;;;;;;;0.55;0.55;;;;;;;;;;4997392;28;20034;-68
2023/03/25 12:01:00;;;;;;;1.20;0.60;;;;;;;;;;4997524;28;20026;-69
2023/03/25 12:03:26;;;;;;;0.65;0.65;;;;;;;;;;4997445;28;20042;-69
2023/03/25 12:05:57;;;;;;;0.80;0.80;;;;;;;;;;4980023;28;20030;-68
2023/03/25 12:08:23;;;;;;;0.82;0.80;;;;;;;;;;4979332;28;20089;-69
2023/03/25 12:10:58;;;;;;;0.60;0.60;;;;;;;;;;4996936;28;20010;-62
2023/03/25 12:13:23;;;;;;;1.00;1.00;;;;;;;;;;4997151;28;20414;-61
2023/03/25 12:15:57;;;;;;;1.02;0.75;;;;;;;;;;4996893;28;20038;-62
2023/03/25 12:18:29;;;;;;;1.30;1.20;;;;;;;;;;4997065;28;20430;-61
2023/03/25 12:21:02;;;;;;;2.35;1.48;;;;;;;;;;4997219;28;20065;-62
2023/03/25 12:23:39;;;;;;;1.42;1.33;;;;;;;;;;4979663;28;20371;-62
2023/03/25 12:26:09;;;;;;;1.90;1.25;;;;;;;;;;4997068;28;20034;-62
2023/03/25 12:28:41;;;;;;;1.95;1.33;;;;;;;;;;4963454;28;20378;-62
2023/03/25 12:31:18;;;;;;;2.10;1.58;;;;;;;;;;4997018;28;20045;-62
2023/03/25 12:33:43;;;;;;;1.75;1.30;;;;;;;;;;4979753;28;20050;-62
2023/03/25 12:36:16;;;;;;;2.50;2.15;;;;;;;;;;4996967;28;20026;-61
2023/03/25 12:38:41;;;;;;;2.50;2.17;;;;;;;;;;4996826;28;20044;-62
2023/03/25 12:41:28;;;;;;;2.47;2.20;;;;;;;;;;4996703;28;20113;-61
2023/03/25 12:44:02;;;;;;;2.70;2.28;;;;;;;;;;4996777;28;20482;-62
2023/03/25 12:46:46;;;;;;;2.15;1.90;;;;;;;;;;4979951;28;20054;-61
2023/03/25 12:49:21;;;;;;;3.45;2.75;;;;;;;;;;4979797;28;20427;-62
2023/03/25 12:52:03;;;;;;;19.20;14.30;;;;;;;;;;4997127;28;20118;-68
2023/03/25 12:54:28;;;;;;;6.60;5.13;;;;;;;;;;4997059;28;20030;-61
2023/03/25 12:57:04;;;;;;;4.75;2.55;;;;;;;;;;4997039;28;20117;-62
2023/03/25 12:59:29;;;;;;;2.58;2.25;;;;;;;;;;4979156;28;20034;-61
2023/03/25 13:02:05;;;;;;;2.45;2.08;;;;;;;;;;4978186;28;20474;-61
2023/03/25 13:04:42;;;;;;;2.70;1.83;;;;;;;;;;4995954;28;20510;-62
2023/03/25 13:07:13;;;;;;;2.88;2.05;;;;;;;;;;4996012;28;20030;-62
2023/03/25 13:09:39;;;;;;;1.92;1.83;;;;;;;;;;4995689;28;20030;-61
2023/03/25 13:12:10;;;;;;;2.13;1.83;;;;;;;;;;4978444;28;20745;-62
2023/03/25 13:14:38;;;;;;;3.33;2.08;;;;;;;;;;4996070;28;20042;-61
2023/03/25 13:17:10;;;;;;;3.60;2.35;;;;;;;;;;4995136;28;20509;-62
2023/03/25 13:19:41;;;;;;;2.60;2.30;;;;;;;;;;4977312;28;20113;-61
2023/03/25 13:22:12;;;;;;;2.55;2.30;;;;;;;;;;4977065;28;20042;-62
2023/03/25 13:24:48;;;;;;;3.35;1.85;;;;;;;;;;4994940;28;20030;-62
2023/03/25 13:27:14;;;;;;;1.55;1.45;;;;;;;;;;4994968;28;20034;-62
2023/03/25 13:29:48;;;;;;;1.00;1.00;;;;;;;;;;4977364;28;20465;-61
2023/03/25 13:32:22;;;;;;;1.20;1.10;;;;;;;;;;4960598;28;20065;-61
2023/03/25 13:34:51;;;;;;;1.98;1.42;;;;;;;;;;4994764;28;20351;-62
2023/03/25 13:37:35;;;;;;;1.33;1.00;;;;;;;;;;4994691;28;20038;-62
2023/03/25 13:40:12;;;;;;;0.70;0.70;;;;;;;;;;4977499;28;20046;-62
2023/03/25 13:42:56;;;;;;;1.40;0.80;;;;;;;;;;4994944;28;20038;-62
2023/03/25 13:45:23;;;;;;;2.15;2.03;;;;;;;;;;4995048;28;20471;-68
2023/03/25 13:48:09;;;;;;;2.50;2.30;;;;;;;;;;4977052;28;20031;-68
2023/03/25 13:50:35;;;;;;;1.60;1.42;;;;;;;;;;4993668;28;20489;-68
2023/03/25 13:53:04;;;;;;;1.90;1.50;;;;;;;;;;4976674;28;20080;-61
2023/03/25 13:55:35;;;;;;;5.03;3.17;;;;;;;;;;4976567;28;20052;-61
2023/03/25 13:58:01;;;;;;;5.78;2.67;;;;;;;;;;4993929;28;20121;-61
2023/03/25 14:00:26;;;;;;;9.73;4.45;;;;;;;;;;4994337;28;20114;-61
2023/03/25 14:02:59;;;;;;;6.63;4.38;;;;;;;;;;4977018;28;20035;-61
2023/03/25 14:05:43;;;;;;;3.47;2.33;;;;;;;;;;4994337;28;20028;-61
2023/03/25 14:08:17;;;;;;;6.00;4.18;;;;;;;;;;4976823;28;20045;-61
2023/03/25 14:11:19;;;;;;;4.80;3.92;;;;;;;;;;4976499;28;20022;-61
2023/03/25 14:14:05;;;;;;;3.60;3.30;;;;;;;;;;4894672;29;20032;-61
2023/03/25 14:16:40;;;;;;;5.03;2.55;;;;;;;;;;4949545;28;1084353;-62
2023/03/25 14:19:08;;;;;;;3.22;2.92;;;;;;;;;;4994991;28;20023;-61
2023/03/25 14:21:37;;;;;;;9.07;5.47;;;;;;;;;;4994131;28;20499;-60
2023/03/25 14:24:12;;;;;;;5.53;4.07;;;;;;;;;;4994922;28;20038;-61
2023/03/25 14:26:41;;;;;;;8.13;4.25;;;;;;;;;;4994935;28;20035;-61
2023/03/25 14:29:14;;;;;;;5.50;2.57;;;;;;;;;;4994900;28;20038;-61
2023/03/25 14:31:57;;;;;;;2.85;1.80;;;;;;;;;;4994779;28;20031;-61
2023/03/25 14:34:24;;;;;;;2.15;1.63;;;;;;;;;;4994911;28;20022;-61
2023/03/25 14:36:49;;;;;;;1.75;1.40;;;;;;;;;;4994629;28;20034;-61
2023/03/25 14:39:23;;;;;;;1.40;1.30;;;;;;;;;;4994826;28;20041;-61
2023/03/25 14:41:58;;;;;;;1.85;1.63;;;;;;;;;;4994287;28;20035;-61
2023/03/25 14:44:27;;;;;;;1.70;1.60;;;;;;;;;;4977256;28;20027;-61
2023/03/25 14:47:15;;;;;;;2.53;1.87;;;;;;;;;;4994426;28;20045;-61
2023/03/25 14:49:59;;;;;;;2.45;2.25;;;;;;;;;;4994425;28;20084;-62
2023/03/25 14:52:27;;;;;;;3.65;2.50;;;;;;;;;;4976567;28;20489;-63
2023/03/25 14:54:53;;;;;;;2.88;2.47;;;;;;;;;;4993906;28;20116;-60
2023/03/25 14:57:23;;;;;;;4.60;2.80;;;;;;;;;;4994456;28;20069;-60